Latest Weather Observations for Mount Boyce

IDN60901

Issued at 11:51 pm EST Tuesday 1 September 2015 (issued every 10 minutes, with the page automatically refreshed every 10 minutes)

About weather observations | Map of Sydney area stations | Latest observations for Sydney area | Other Formats
Station Details ID: 063292 Name: MOUNT BOYCE AWS Lat: -33.62 Lon: 150.27 Height: 1080.0 m
Data from the previous 72 hours. | See also: Recent months at Mount Boyce
Date/Time
EST
Tmp

°C
App
Tmp
°C
Dew
Point
°C
Rel
Hum
%
Delta-T

°C
Wind Press
QNH
hPa
Press
MSL
hPa
Rain
since
9 am
mm
Dir
 
Spd
km/h
Gust
km/h
Spd
kts
Gust
kts
01/11:30pm 3.9 -1.7 -0.1 75 1.6 W 19 24 10 13 - - 0.0
01/11:00pm 3.9 -1.3 -0.1 75 1.6 W 17 20 9 11 - - 0.0
01/10:30pm 4.0 -1.6 -0.2 74 1.7 W 19 22 10 12 - - 0.0
01/10:00pm 4.2 -1.0 0.2 75 1.6 WNW 17 20 9 11 - - 0.0
01/09:30pm 4.2 -1.0 0.2 75 1.6 W 17 20 9 11 - - 0.0
01/09:00pm 4.8 -0.4 0.2 72 1.9 W 17 20 9 11 - - 0.0
01/08:30pm 4.7 -0.1 0.5 74 1.7 W 15 19 8 10 - - 0.0
01/08:00pm 5.2 0.8 0.4 71 2.0 W 13 20 7 11 - - 0.0
01/07:30pm 5.8 1.4 0.6 69 2.2 WNW 13 20 7 11 - - 0.0
01/07:00pm 5.9 1.8 0.0 66 2.4 W 11 17 6 9 - - 0.0
01/06:30pm 6.4 2.3 -0.3 62 2.8 WNW 11 17 6 9 - - 0.0
01/06:00pm 7.1 2.7 -2.6 50 3.8 W 11 19 6 10 - - 0.0
01/05:30pm 8.8 3.2 -3.1 43 4.7 WSW 17 26 9 14 - - 0.0
01/05:00pm 10.0 4.4 -3.0 40 5.2 WSW 17 26 9 14 - - 0.0
01/04:30pm 10.8 4.6 -2.9 38 5.6 W 20 30 11 16 - - 0.0
01/04:00pm 11.3 4.9 -4.8 32 6.3 WSW 20 30 11 16 - - 0.0
01/03:30pm 11.7 4.8 -5.7 29 6.7 WSW 22 33 12 18 - - 0.0
01/03:00pm 11.8 5.5 -3.9 33 6.3 W 20 30 11 16 - - 0.0
01/02:30pm 12.0 5.8 -3.4 34 6.3 W 20 35 11 19 - - 0.0
01/02:00pm 11.3 4.2 -4.0 34 6.1 W 24 32 13 17 - - 0.0
01/01:30pm 11.5 4.6 -2.3 38 5.7 W 24 37 13 20 - - 0.0
01/01:00pm 10.7 4.3 -2.0 41 5.3 W 22 32 12 17 - - 0.0
01/12:30pm 10.5 4.1 -1.9 42 5.1 WSW 22 39 12 21 - - 0.0
01/12:00pm 10.0 3.6 -1.7 44 4.8 WSW 22 37 12 20 - - 0.0
01/11:30am 8.8 2.7 0.3 55 3.6 W 22 30 12 16 - - 0.0
01/11:00am 8.1 2.4 0.6 59 3.2 W 20 30 11 16 - - 0.0
01/10:30am 7.3 1.4 -0.9 56 3.4 W 20 30 11 16 - - 0.0
01/10:00am 6.2 0.6 -0.1 64 2.6 W 19 28 10 15 - - 0.0
01/09:30am 5.2 -0.4 0.0 69 2.1 W 19 26 10 14 - - 0.0
01/09:00am 3.7 -2.1 -0.1 76 1.5 W 20 26 11 14 - - 0.0
01/08:30am 2.7 -2.9 -0.2 81 1.2 WSW 19 28 10 15 - - 0.0
01/08:00am 1.9 -4.0 -0.5 84 0.9 W 20 30 11 16 - - 0.0
01/07:30am 1.3 -4.9 -0.6 87 0.7 W 22 30 12 16 - - 0.0
01/07:00am 0.8 -4.9 -0.6 90 0.5 WSW 19 24 10 13 - - 0.0
01/06:30am 1.0 -4.7 -0.6 89 0.6 W 19 28 10 15 - - 0.0
01/06:00am 1.3 -5.3 -0.6 87 0.7 W 24 30 13 16 - - 0.0
01/05:30am 1.0 -4.8 -0.1 92 0.4 W 20 32 11 17 - - 0.0
01/05:00am 1.1 -5.1 -0.1 92 0.5 W 22 32 12 17 - - 0.0
01/04:30am 1.2 -4.6 0.2 93 0.4 WSW 20 28 11 15 - - 0.0
01/04:00am 1.3 -3.9 0.0 91 0.5 WSW 17 22 9 12 - - 0.0
01/03:30am 1.6 -3.6 0.1 90 0.6 WSW 17 24 9 13 - - 0.0
01/03:00am 1.5 -3.7 0.0 90 0.6 WSW 17 22 9 12 - - 0.0
01/02:30am 2.1 -3.1 0.2 87 0.8 WSW 17 24 9 13 - - 0.0
01/02:00am 2.3 -3.4 0.4 87 0.8 WSW 20 26 11 14 - - 0.0
01/01:30am 2.8 -3.6 0.7 86 0.9 W 24 33 13 18 - - 0.0
01/01:00am 2.8 -2.3 0.9 87 0.8 W 17 26 9 14 - - 0.0
01/12:30am 2.9 -2.2 0.8 86 0.9 W 17 24 9 13 - - 0.0
01/12:00am 2.8 -1.9 0.9 87 0.8 WSW 15 20 8 11 - - 0.0
 
Date/Time
EST
Tmp

°C
App
Tmp
°C
Dew
Point
°C
Rel
Hum
%
Delta-T

°C
Wind Press
QNH
hPa
Press
MSL
hPa
Rain
since
9 am
mm
Dir
 
Spd
km/h
Gust
km/h
Spd
kts
Gust
kts
31/11:30pm 2.9 -1.8 1.1 88 0.7 W 15 20 8 11 - - 0.0
31/11:00pm 3.1 -1.5 1.3 88 0.7 W 15 20 8 11 - - 0.0
31/10:30pm 3.5 -1.1 1.5 87 0.8 W 15 20 8 11 - - 0.0
31/10:00pm 3.8 -1.5 1.7 86 0.9 W 19 24 10 13 - - 0.0
31/09:30pm 3.8 -0.8 1.7 86 0.9 W 15 20 8 11 - - 0.0
31/09:00pm 3.8 -0.9 1.2 83 1.1 W 15 20 8 11 - - 0.0
31/08:30pm 4.1 -0.5 1.3 82 1.2 W 15 20 8 11 - - 0.0
31/08:00pm 4.5 0.2 1.2 79 1.4 W 13 19 7 10 - - 0.0
31/07:30pm 4.9 0.2 1.0 76 1.6 W 15 20 8 11 - - 0.0
31/07:00pm 5.3 1.0 1.2 75 1.7 W 13 19 7 10 - - 0.0
31/06:30pm 5.7 1.5 1.4 74 1.8 W 13 17 7 9 - - 0.0
31/06:00pm 6.1 2.6 1.1 70 2.1 W 9 17 5 9 - - 0.0
31/05:30pm 7.8 2.8 1.2 63 2.9 W 17 24 9 13 - - 0.0
31/05:00pm 9.2 5.1 2.3 62 3.1 W 13 19 7 10 - - 0.0
31/04:30pm 9.7 5.6 2.1 59 3.4 W 13 20 7 11 - - 0.0
31/04:00pm 9.1 4.5 1.8 60 3.2 W 15 22 8 12 - - 0.0
31/03:30pm 9.2 4.3 1.9 60 3.3 W 17 22 9 12 - - 0.0
31/03:00pm 9.2 3.9 2.1 61 3.2 W 19 28 10 15 - - 0.0
31/02:30pm 8.8 3.5 1.9 62 3.1 W 19 32 10 17 - - 0.0
31/02:00pm 8.9 4.0 2.3 63 3.0 W 17 28 9 15 - - 0.0
31/01:30pm 9.1 4.2 1.8 60 3.2 WSW 17 30 9 16 - - 0.0
31/01:00pm 10.4 6.0 4.8 68 2.7 W 17 24 9 13 - - 0.0
31/12:30pm 9.7 4.6 3.0 63 3.1 W 19 30 10 16 - - 0.0
31/12:00pm 9.2 4.5 3.0 65 2.8 W 17 24 9 13 - - 0.0
31/11:30am 8.7 3.5 2.3 64 2.9 W 19 28 10 15 - - 0.0
31/11:00am 8.8 3.4 2.2 63 3.0 W 20 32 11 17 - - 0.0
31/10:30am 8.3 4.0 3.4 71 2.2 W 15 22 8 12 - - 0.0
31/10:00am 7.3 3.4 3.2 75 1.9 W 13 19 7 10 - - 0.0
31/09:30am 6.4 2.7 2.1 74 1.9 WSW 11 15 6 8 - - 0.0
31/09:00am 5.7 2.8 2.4 79 1.4 W 7 11 4 6 - - 0.0
31/08:30am 4.7 1.5 2.9 88 0.8 W 9 11 5 6 - - 0.0
31/08:00am 3.8 0.7 3.4 97 0.2 W 9 13 5 7 - - 0.0
31/07:30am 3.0 -0.3 2.6 97 0.2 W 9 13 5 7 - - 0.0
31/07:00am 3.1 -0.2 2.7 97 0.2 WNW 9 11 5 6 - - 0.0
31/06:30am 3.0 -0.3 2.6 97 0.2 WNW 9 11 5 6 - - 0.0
31/06:00am 3.2 -0.1 2.6 96 0.3 WNW 9 13 5 7 - - 0.0
31/05:30am 3.2 -0.1 2.5 95 0.3 W 9 11 5 6 - - 0.0
31/05:00am 3.7 0.8 2.8 94 0.4 WNW 7 11 4 6 - - 0.0
31/04:30am 4.2 1.4 3.3 94 0.4 W 7 9 4 5 - - 0.0
31/04:00am 4.4 1.8 3.4 93 0.4 W 6 9 3 5 - - 0.0
31/03:30am 4.5 3.1 3.3 92 0.5 CALM 0 0 0 0 - - 0.0
31/03:00am 4.5 3.0 3.2 91 0.6 CALM 0 0 0 0 - - 0.0
31/02:30am 4.7 3.2 3.2 90 0.7 CALM 0 0 0 0 - - 0.0
31/02:00am 4.7 3.2 3.2 90 0.7 CALM 0 0 0 0 - - 0.0
31/01:30am 4.9 3.1 3.2 89 0.8 W 2 7 1 4 - - 0.0
31/01:00am 5.2 2.6 3.1 86 0.9 SSW 6 9 3 5 - - 0.0
31/12:30am 5.3 2.5 3.0 85 1.0 SW 7 9 4 5 - - 0.0
31/12:00am 5.6 2.7 2.8 82 1.2 SW 7 11 4 6 - - 0.0
 
Date/Time
EST
Tmp

°C
App
Tmp
°C
Dew
Point
°C
Rel
Hum
%
Delta-T

°C
Wind Press
QNH
hPa
Press
MSL
hPa
Rain
since
9 am
mm
Dir
 
Spd
km/h
Gust
km/h
Spd
kts
Gust
kts
30/11:30pm 5.7 3.4 2.9 82 1.2 SSW 4 7 2 4 - - 0.0
30/11:00pm 5.7 4.2 3.0 83 1.2 CALM 0 6 0 3 - - 0.0
30/10:30pm 5.6 3.4 3.6 87 0.9 ESE 4 6 2 3 - - 0.0
30/10:00pm 5.8 4.4 3.3 84 1.1 CALM 0 6 0 3 - - 0.0
30/09:30pm 5.6 4.2 3.6 87 0.9 CALM 0 0 0 0 - - 0.0
30/09:00pm 5.8 4.0 3.3 84 1.1 E 2 6 1 3 - - 0.0
30/08:30pm 5.9 3.1 3.2 83 1.2 ENE 7 11 4 6 - - 0.0
30/08:00pm 6.2 3.3 2.7 78 1.5 NE 7 9 4 5 - - 0.0
30/07:30pm 6.4 3.8 3.0 79 1.5 ENE 6 7 3 4 - - 0.0
30/07:00pm 6.9 4.1 2.0 71 2.1 SE 6 13 3 7 - - 0.0
30/06:30pm 6.9 4.2 2.4 73 2.0 E 6 9 3 5 - - 0.0
30/06:00pm 7.1 5.5 2.2 71 2.2 CALM 0 0 0 0 - - 0.0
30/05:30pm 7.4 5.4 2.1 69 2.3 SSW 2 7 1 4 - - 0.0
30/05:00pm 7.7 4.9 1.8 66 2.6 S 6 11 3 6 - - 0.0
30/04:30pm 8.1 5.3 2.1 66 2.7 SSW 6 11 3 6 - - 0.0
30/04:00pm 8.5 5.5 2.1 64 2.8 SSW 7 9 4 5 - - 0.0
30/03:30pm 9.1 6.3 2.2 62 3.1 SW 6 9 3 5 - - 0.0
30/03:00pm 9.0 6.0 1.9 61 3.2 SW 7 13 4 7 - - 0.0
30/02:30pm 9.3 6.1 0.7 55 3.7 SSW 7 11 4 6 - - 0.0
30/02:00pm 9.6 5.6 0.8 54 3.8 SW 11 19 6 10 - - 0.0
30/01:30pm 10.0 5.9 0.1 50 4.3 SSW 11 19 6 10 - - 0.0
30/01:00pm 10.3 5.8 -0.2 48 4.5 W 13 20 7 11 - - 0.0
30/12:30pm 9.7 5.2 -0.5 49 4.3 WNW 13 19 7 10 - - 0.0
30/12:00pm 9.3 5.6 0.2 53 3.9 SSW 9 17 5 9 - - 0.0
30/11:30am 8.7 5.4 0.2 55 3.6 SW 7 15 4 8 - - 0.0
30/11:00am 8.4 4.9 1.3 61 3.1 SW 9 15 5 8 - - 0.0
30/10:30am 7.5 3.9 0.5 61 3.0 SSW 9 13 5 7 - - 0.0
30/10:00am 6.6 2.9 0.1 63 2.7 SSW 9 13 5 7 - - 0.0
30/09:30am 5.8 1.7 -0.3 65 2.5 SSW 11 15 6 8 - - 0.0
30/09:00am 4.8 0.6 -0.8 67 2.2 SSW 11 17 6 9 - - 0.0
30/08:30am 4.2 -0.4 -1.0 69 2.1 SSW 13 20 7 11 - - 0.0
30/08:00am 3.4 -1.2 -1.0 73 1.7 SSW 13 17 7 9 - - 0.0
30/07:30am 2.2 -1.7 -1.4 77 1.4 SSW 9 13 5 7 - - 0.0
30/07:00am 2.1 -2.2 -1.3 78 1.3 SSW 11 15 6 8 - - 0.0
30/06:30am 1.5 -2.4 -1.4 81 1.1 SSW 9 13 5 7 - - 0.0
30/06:00am 1.0 -2.6 -2.1 80 1.2 WSW 7 9 4 5 - - 0.0
30/05:30am 1.3 -2.6 -1.3 83 1.0 SSW 9 11 5 6 - - 0.0
30/05:00am 0.5 -3.1 -2.0 83 1.0 W 7 9 4 5 - - 0.0
30/04:30am 0.7 -2.9 -2.0 82 1.0 W 7 9 4 5 - - 0.0
30/04:00am 0.6 -3.0 -1.8 84 0.9 W 7 9 4 5 - - 0.0
30/03:30am 0.1 -3.8 -1.3 90 0.5 W 9 9 5 5 - - 0.0
30/03:00am -0.1 -4.3 -1.2 92 0.4 W 11 13 6 7 - - 0.0
30/02:30am -0.2 -4.1 -1.3 92 0.4 W 9 11 5 6 - - 0.0
30/02:00am -0.2 -4.8 -1.2 93 0.4 W 13 13 7 7 - - 0.0
30/01:30am 0.0 -4.6 -1.1 92 0.4 W 13 15 7 8 - - 0.0
30/01:00am 0.2 -4.4 -1.1 91 0.5 W 13 17 7 9 - - 0.0
30/12:30am 0.5 -4.4 -0.8 91 0.5 W 15 17 8 9 - - 0.0
30/12:00am 0.9 -4.4 -0.7 89 0.6 W 17 20 9 11 - - 0.0

Latest Capital City Observations: Canberra | Sydney | Melbourne | Brisbane | Adelaide | Perth | Hobart | Darwin

Other Formats:

Comma delimited format used in spreadsheet applications
http://www.bom.gov.au/fwo/IDN60901/IDN60901.94743.axf

JavaScript Object Notation format (JSON) in row-major order
http://www.bom.gov.au/fwo/IDN60901/IDN60901.94743.json